Meulebeke, Belgium
Current Conditions -  °F | °C
As of 11:50 PM on Tuesday 27 Jan 2015 (Local Time) from EBOS Reporting Station
Broken Clouds Broken Clouds  
Wind Chill: 37°   Ceiling: 3700
Heat Index: 43°   Visibility: 6mi
Dew Point: 41°   Wind: 9mph
Humidity: 93%   Direction: 220°SW
Pressure: 30.18"   Gusts: NA
Location:  50.95°N, 3.29°E
Report Text: EBOS 272250Z 22008KT 9999 FEW020 BKN037 06/05 Q1022 NOSIG
Loading
Personal Weather Stations






























Interactive Weather Map New forecast layout! Learn more

10-Day Weather Forecast

Advertisements
Track Severe Weather on mobile